createdAt,value
2019-02-05T00:03:16.456Z,17.02
2019-02-05T00:08:18.065Z,18.87
2019-02-05T00:13:19.405Z,18.42
2019-02-05T00:18:21.993Z,18.62
2019-02-05T00:23:23.172Z,19.80
2019-02-05T00:28:24.644Z,18.95
2019-02-05T00:33:26.012Z,18.20
2019-02-05T00:38:28.324Z,19.07
2019-02-05T00:43:30.231Z,18.48
2019-02-05T00:48:31.716Z,21.20
2019-02-05T00:53:32.933Z,20.35
2019-02-05T00:58:34.182Z,18.60
2019-02-05T01:03:35.443Z,18.65
2019-02-05T01:08:36.729Z,19.70
2019-02-05T01:13:37.914Z,19.20
2019-02-05T01:18:39.074Z,21.12
2019-02-05T01:23:40.384Z,20.68
2019-02-05T01:28:41.707Z,18.37
2019-02-05T01:33:43.190Z,19.77
2019-02-05T01:38:44.373Z,20.92
2019-02-05T01:43:49.175Z,19.50
2019-02-05T01:48:50.288Z,20.77
2019-02-05T01:53:51.569Z,20.65
2019-02-05T01:58:52.877Z,21.62
2019-02-05T02:03:54.241Z,21.30
2019-02-05T02:08:55.398Z,21.48
2019-02-05T02:13:56.740Z,22.05
2019-02-05T02:18:57.972Z,22.50
2019-02-05T02:23:59.134Z,21.02
2019-02-05T02:29:00.431Z,22.02
2019-02-05T02:34:01.622Z,21.65
2019-02-05T02:39:04.605Z,21.20
2019-02-05T02:44:06.289Z,21.25
2019-02-05T02:49:07.440Z,21.85
2019-02-05T02:54:09.101Z,21.12
2019-02-05T02:59:10.363Z,20.70
2019-02-05T03:04:11.892Z,22.87
2019-02-05T03:09:13.444Z,22.82
2019-02-05T03:14:14.875Z,20.35
2019-02-05T03:19:16.051Z,22.95
2019-02-05T03:24:17.620Z,23.40
2019-02-05T03:29:18.771Z,23.95
2019-02-05T03:34:20.136Z,22.62
2019-02-05T03:39:21.713Z,22.70
2019-02-05T03:44:23.090Z,21.23
2019-02-05T03:49:24.452Z,20.95
2019-02-05T03:54:32.448Z,24.37
2019-02-05T03:59:49.433Z,23.07
2019-02-05T04:05:20.569Z,22.37
2019-02-05T04:10:59.503Z,20.37
2019-02-05T04:16:16.796Z,24.15
2019-02-05T04:21:31.063Z,25.08
2019-02-05T04:26:42.119Z,22.45
2019-02-05T04:32:07.903Z,24.12
2019-02-05T04:37:19.188Z,23.77
2019-02-05T04:42:39.713Z,23.47
2019-02-05T04:48:11.825Z,22.55
2019-02-05T04:53:22.792Z,22.25
2019-02-05T04:58:30.711Z,22.30
2019-02-05T05:03:52.790Z,24.05
2019-02-05T05:09:13.172Z,23.18
2019-02-05T05:14:14.363Z,23.92
2019-02-05T05:19:15.650Z,25.08
2019-02-05T05:24:17.051Z,23.45
2019-02-05T05:29:18.585Z,23.92
2019-02-05T05:34:19.876Z,25.40
2019-02-05T05:39:21.013Z,25.65
2019-02-05T05:44:22.337Z,25.75
2019-02-05T05:49:24.222Z,26.50
2019-02-05T05:54:25.365Z,24.80
2019-02-05T05:59:26.534Z,24.02
2019-02-05T06:04:27.801Z,24.07
2019-02-05T06:09:29.446Z,24.98
2019-02-05T06:14:31.109Z,24.63
2019-02-05T06:19:32.416Z,25.50
2019-02-05T06:24:35.014Z,24.47
2019-02-05T06:29:36.197Z,27.37
2019-02-05T06:34:38.122Z,25.02
2019-02-05T06:39:39.544Z,24.20
2019-02-05T06:44:40.823Z,28.12
2019-02-05T06:49:42.618Z,27.50
2019-02-05T06:54:43.881Z,26.00
2019-02-05T06:59:45.081Z,25.72
2019-02-05T07:04:46.336Z,24.57
2019-02-05T07:09:47.735Z,23.75
2019-02-05T07:14:49.026Z,26.62
2019-02-05T07:19:50.707Z,26.10
2019-02-05T07:24:52.584Z,29.30
2019-02-05T07:29:53.908Z,30.72
2019-02-05T07:34:55.677Z,28.83
2019-02-05T07:39:57.233Z,29.52
2019-02-05T07:44:58.360Z,31.52
2019-02-05T07:49:59.566Z,30.35
2019-02-05T07:55:01.125Z,30.45
2019-02-05T08:00:06.142Z,32.28
2019-02-05T08:05:11.413Z,33.02
2019-02-05T08:10:15.652Z,30.88
2019-02-05T08:15:22.968Z,28.25
2019-02-05T08:20:24.529Z,27.93
2019-02-05T08:25:25.909Z,26.23
2019-02-05T08:30:36.213Z,26.77
2019-02-05T08:35:37.549Z,27.13
2019-02-05T08:40:38.941Z,28.85
2019-02-05T08:45:40.804Z,26.87
2019-02-05T08:50:42.109Z,25.82
2019-02-05T08:55:43.596Z,25.17
2019-02-05T09:00:46.048Z,26.17
2019-02-05T09:05:47.490Z,24.32
2019-02-05T09:10:48.888Z,23.83
2019-02-05T09:15:50.454Z,20.77
2019-02-05T09:20:51.707Z,19.20
2019-02-05T09:25:53.036Z,19.20
2019-02-05T09:30:54.271Z,20.08
2019-02-05T09:35:55.447Z,18.62
2019-02-05T09:40:56.627Z,19.27
2019-02-05T09:45:57.886Z,20.75
2019-02-05T09:50:59.452Z,20.05
2019-02-05T09:56:00.713Z,18.55
2019-02-05T10:01:02.190Z,18.67
2019-02-05T10:06:03.610Z,19.30
2019-02-05T10:11:04.854Z,18.65
2019-02-05T10:16:06.323Z,19.15
2019-02-05T10:21:08.049Z,19.00
2019-02-05T10:26:09.309Z,18.05
2019-02-05T10:31:10.609Z,18.92
2019-02-05T10:36:11.996Z,19.10
2019-02-05T10:41:13.162Z,18.65
2019-02-05T10:46:14.550Z,19.65
2019-02-05T10:51:15.901Z,18.92
2019-02-05T10:56:17.052Z,19.15
2019-02-05T11:01:18.323Z,19.30
2019-02-05T11:06:20.240Z,19.17
2019-02-05T11:11:21.926Z,18.20
2019-02-05T11:16:23.746Z,18.00
2019-02-05T11:21:25.131Z,18.80
2019-02-05T11:26:27.370Z,17.70
2019-02-05T11:31:29.078Z,18.37
2019-02-05T11:36:30.521Z,17.75
2019-02-05T11:41:32.427Z,17.27
2019-02-05T11:46:33.847Z,17.27
2019-02-05T11:51:35.327Z,16.07
2019-02-05T11:56:36.919Z,16.17
2019-02-05T12:01:39.323Z,15.63
2019-02-05T12:06:40.721Z,15.20
2019-02-05T12:11:42.652Z,16.52
2019-02-05T12:16:44.989Z,15.75
2019-02-05T12:21:50.279Z,15.05
2019-02-05T12:26:51.709Z,13.65
2019-02-05T12:31:53.035Z,13.50
2019-02-05T12:36:54.447Z,12.78
2019-02-05T12:41:55.559Z,12.30
2019-02-05T12:46:56.893Z,14.80
2019-02-05T12:51:58.389Z,15.05
2019-02-05T12:56:59.781Z,16.25
2019-02-05T13:02:01.103Z,13.28
2019-02-05T13:07:02.671Z,10.20
2019-02-05T13:12:04.528Z,10.75
2019-02-05T13:17:05.940Z,12.07
2019-02-05T13:22:07.371Z,14.68
2019-02-05T13:27:08.773Z,13.05
2019-02-05T13:32:10.050Z,12.82
2019-02-05T13:37:11.325Z,12.63
2019-02-05T13:42:12.578Z,12.35
2019-02-05T13:47:18.227Z,12.05
2019-02-05T13:52:19.360Z,11.53
2019-02-05T13:57:20.873Z,10.18
2019-02-05T14:02:22.226Z,8.65
2019-02-05T14:07:23.700Z,8.50
2019-02-05T14:12:24.980Z,6.70
2019-02-05T14:17:26.343Z,7.60
2019-02-05T14:22:27.554Z,9.13
2019-02-05T14:27:28.871Z,8.43
2019-02-05T14:32:30.863Z,9.90
2019-02-05T14:37:32.168Z,10.70
2019-02-05T14:42:33.646Z,10.48
2019-02-05T14:47:35.028Z,9.53
2019-02-05T14:52:36.400Z,9.00
2019-02-05T14:57:38.101Z,8.83
2019-02-05T15:02:39.280Z,7.83
2019-02-05T15:07:40.593Z,8.80
2019-02-05T15:12:43.048Z,8.88
2019-02-05T15:17:44.447Z,8.08
2019-02-05T15:22:45.907Z,9.03
2019-02-05T15:27:47.087Z,8.58
2019-02-05T15:32:50.292Z,7.58
2019-02-05T15:37:51.439Z,6.92
2019-02-05T15:42:52.704Z,7.08
2019-02-05T15:47:56.307Z,7.17
2019-02-05T15:52:57.630Z,6.78
2019-02-05T15:57:58.881Z,6.78
2019-02-05T16:03:00.130Z,7.05
2019-02-05T16:08:01.693Z,7.85
2019-02-05T16:13:03.416Z,8.40
2019-02-05T16:18:04.814Z,7.83
2019-02-05T16:23:06.517Z,7.92
2019-02-05T16:28:08.426Z,7.75
2019-02-05T16:33:10.998Z,10.70
2019-02-05T16:38:12.489Z,27.93
2019-02-05T16:43:13.835Z,12.13
2019-02-05T16:48:15.363Z,23.87
2019-02-05T16:53:16.582Z,28.80
2019-02-05T16:58:17.822Z,12.63
2019-02-05T17:03:19.152Z,11.20
2019-02-05T17:08:21.512Z,10.35
2019-02-05T17:13:22.899Z,9.15
2019-02-05T17:18:24.243Z,10.38
2019-02-05T17:23:25.541Z,10.38
2019-02-05T17:28:26.751Z,12.23
2019-02-05T17:33:28.232Z,11.97
2019-02-05T17:38:29.613Z,11.05
2019-02-05T17:43:30.942Z,11.15
2019-02-05T17:48:32.465Z,11.12
2019-02-05T17:53:33.998Z,13.30
2019-02-05T17:58:35.453Z,11.05
2019-02-05T18:03:37.065Z,10.85
2019-02-05T18:08:38.505Z,11.40
2019-02-05T18:13:39.746Z,11.97
2019-02-05T18:18:41.320Z,12.63
2019-02-05T18:23:42.838Z,12.93
2019-02-05T18:28:44.371Z,11.63
2019-02-05T18:33:45.780Z,12.07
2019-02-05T18:38:46.991Z,12.88
2019-02-05T18:43:48.594Z,14.53
2019-02-05T18:48:50.285Z,14.93
2019-02-05T18:53:51.957Z,15.32
2019-02-05T18:58:53.305Z,14.83
2019-02-05T19:03:55.869Z,14.63
2019-02-05T19:08:57.804Z,14.00
2019-02-05T19:13:59.224Z,14.20
2019-02-05T19:19:01.111Z,16.50
2019-02-05T19:24:05.344Z,16.07
2019-02-05T19:29:18.219Z,18.17
2019-02-05T19:34:10.410Z,19.02
2019-02-05T19:39:11.862Z,16.17
2019-02-05T19:44:13.404Z,16.48
2019-02-05T19:49:22.826Z,16.62
2019-02-05T19:54:24.264Z,16.32
2019-02-05T19:59:26.970Z,17.12
2019-02-05T20:04:28.358Z,17.32
2019-02-05T20:09:29.891Z,16.62
2019-02-05T20:14:31.719Z,17.23
2019-02-05T20:19:33.685Z,17.50
2019-02-05T20:24:36.248Z,17.52
2019-02-05T20:29:38.677Z,17.35
2019-02-05T20:34:40.481Z,18.92
2019-02-05T20:39:42.961Z,20.12
2019-02-05T20:44:44.439Z,19.70
2019-02-05T20:49:46.115Z,20.37
2019-02-05T20:54:47.541Z,19.95
2019-02-05T20:59:49.010Z,21.50
2019-02-05T21:04:50.460Z,21.82
2019-02-05T21:09:51.736Z,20.57
2019-02-05T21:14:53.246Z,20.52
2019-02-05T21:19:57.743Z,20.27
2019-02-05T21:24:59.235Z,19.98
2019-02-05T21:30:00.863Z,20.57
2019-02-05T21:35:03.067Z,20.77
2019-02-05T21:40:16.874Z,23.30
2019-02-05T21:45:23.309Z,22.93
2019-02-05T21:50:25.905Z,21.60
2019-02-05T21:55:28.090Z,23.18
2019-02-05T22:00:34.762Z,21.35
2019-02-05T22:05:36.412Z,21.70
2019-02-05T22:10:38.306Z,22.82
2019-02-05T22:15:39.579Z,23.47
2019-02-05T22:20:41.564Z,23.27
2019-02-05T22:25:43.460Z,21.45
2019-02-05T22:30:44.723Z,22.90
2019-02-05T22:35:46.284Z,23.52
2019-02-05T22:40:47.621Z,24.67
2019-02-05T22:45:49.023Z,24.60
2019-02-05T22:50:50.308Z,26.20
2019-02-05T22:55:51.624Z,24.72
2019-02-05T23:00:57.903Z,25.57
2019-02-05T23:06:24.467Z,24.05
2019-02-05T23:11:58.261Z,26.10
2019-02-05T23:17:01.472Z,25.57
2019-02-05T23:22:02.873Z,27.22
2019-02-05T23:27:04.140Z,27.93
2019-02-05T23:32:06.260Z,26.07
2019-02-05T23:37:07.797Z,28.42
2019-02-05T23:42:09.176Z,27.80
2019-02-05T23:47:10.785Z,28.12
2019-02-05T23:52:12.147Z,28.07
2019-02-05T23:57:13.412Z,29.52
